createdAt,value
2023-03-14T00:02:11.873Z,9.35
2023-03-14T00:04:40.305Z,11.20
2023-03-14T00:07:08.705Z,10.70
2023-03-14T00:09:37.197Z,9.63
2023-03-14T00:12:08.429Z,10.55
2023-03-14T00:14:36.945Z,9.85
2023-03-14T00:17:05.402Z,11.52
2023-03-14T00:19:33.889Z,9.47
2023-03-14T00:22:02.359Z,8.65
2023-03-14T00:24:30.729Z,9.35
2023-03-14T00:26:59.153Z,11.40
2023-03-14T00:29:29.181Z,10.17
2023-03-14T00:31:57.620Z,7.20
2023-03-14T00:34:26.092Z,11.07
2023-03-14T00:36:54.585Z,8.70
2023-03-14T00:39:23.274Z,12.32
2023-03-14T00:41:51.698Z,10.27
2023-03-14T00:44:20.113Z,8.63
2023-03-14T00:46:49.930Z,10.70
2023-03-14T00:49:18.460Z,9.07
2023-03-14T00:51:46.799Z,7.38
2023-03-14T00:54:15.392Z,8.43
2023-03-14T00:56:43.818Z,12.45
2023-03-14T00:59:12.307Z,8.32
2023-03-14T01:01:41.413Z,6.22
2023-03-14T01:04:11.139Z,10.88
2023-03-14T01:06:39.761Z,8.77
2023-03-14T01:09:08.687Z,9.43
2023-03-14T01:11:38.191Z,9.70
2023-03-14T01:14:06.682Z,8.88
2023-03-14T01:16:36.823Z,9.85
2023-03-14T01:19:05.606Z,8.15
2023-03-14T01:21:36.452Z,12.05
2023-03-14T01:24:06.620Z,8.75
2023-03-14T01:26:37.020Z,12.30
2023-03-14T01:29:05.641Z,15.52
2023-03-14T01:31:34.168Z,11.32
2023-03-14T01:34:02.627Z,16.13
2023-03-14T01:36:31.882Z,12.53
2023-03-14T01:39:01.761Z,14.30
2023-03-14T01:41:30.340Z,12.60
2023-03-14T01:43:58.903Z,12.43
2023-03-14T01:46:41.043Z,11.70
2023-03-14T01:49:18.541Z,8.07
2023-03-14T01:51:51.693Z,17.55
2023-03-14T01:54:27.214Z,13.60
2023-03-14T01:56:59.465Z,13.60
2023-03-14T01:59:30.976Z,10.93
2023-03-14T02:01:59.568Z,9.90
2023-03-14T02:04:35.108Z,15.90
2023-03-14T02:07:08.268Z,10.60
2023-03-14T02:09:40.533Z,10.37
2023-03-14T02:12:10.758Z,11.40
2023-03-14T02:14:39.888Z,13.57
2023-03-14T02:17:09.628Z,16.73
2023-03-14T02:19:54.796Z,10.23
2023-03-14T02:22:23.271Z,10.83
2023-03-14T02:25:01.525Z,11.63
2023-03-14T02:27:31.657Z,10.73
2023-03-14T02:30:03.145Z,13.60
2023-03-14T02:32:34.710Z,8.80
2023-03-14T02:35:06.144Z,7.93
2023-03-14T02:37:38.738Z,12.37
2023-03-14T02:40:08.730Z,7.45
2023-03-14T02:42:38.485Z,9.10
2023-03-14T02:45:38.782Z,7.97
2023-03-14T02:48:09.995Z,7.43
2023-03-14T02:50:38.783Z,9.73
2023-03-14T02:53:07.144Z,6.60
2023-03-14T02:55:35.655Z,6.32
2023-03-14T02:58:05.214Z,7.85
2023-03-14T03:00:34.429Z,10.27
2023-03-14T03:03:03.214Z,9.77
2023-03-14T03:05:31.806Z,9.57
2023-03-14T03:08:00.648Z,4.63
2023-03-14T03:10:29.656Z,7.80
2023-03-14T03:12:58.164Z,4.53
2023-03-14T03:15:28.199Z,4.87
2023-03-14T03:17:56.921Z,5.13
2023-03-14T03:20:25.261Z,2.70
2023-03-14T03:22:53.920Z,4.13
2023-03-14T03:25:22.443Z,2.53
2023-03-14T03:27:50.716Z,3.17
2023-03-14T03:30:19.190Z,4.78
2023-03-14T03:32:49.161Z,2.63
2023-03-14T03:35:17.793Z,4.45
2023-03-14T03:37:46.307Z,6.30
2023-03-14T03:40:14.951Z,3.88
2023-03-14T03:42:43.404Z,2.37
2023-03-14T03:45:12.255Z,3.20
2023-03-14T03:47:41.127Z,3.57
2023-03-14T03:50:12.176Z,6.37
2023-03-14T03:52:40.606Z,6.87
2023-03-14T03:55:09.547Z,3.97
2023-03-14T03:57:38.001Z,3.53
2023-03-14T04:00:08.094Z,4.53
2023-03-14T04:02:36.693Z,6.37
2023-03-14T04:05:05.225Z,6.17
2023-03-14T04:07:35.983Z,6.45
2023-03-14T04:10:04.501Z,4.83
2023-03-14T04:12:32.985Z,3.97
2023-03-14T04:15:01.419Z,3.67
2023-03-14T04:17:29.806Z,4.37
2023-03-14T04:19:58.255Z,4.60
2023-03-14T04:22:26.697Z,4.57
2023-03-14T04:24:56.336Z,4.67
2023-03-14T04:27:25.235Z,5.83
2023-03-14T04:29:53.648Z,4.23
2023-03-14T04:32:22.133Z,9.10
2023-03-14T04:34:50.515Z,0.00
2023-03-14T04:37:19.206Z,0.20
2023-03-14T04:39:47.638Z,0.00
2023-03-14T04:42:17.230Z,0.10
2023-03-14T04:44:45.674Z,0.00
2023-03-14T04:47:14.069Z,0.00
2023-03-14T04:49:42.377Z,0.00
2023-03-14T04:52:10.956Z,0.00
2023-03-14T04:54:39.355Z,0.00
2023-03-14T04:57:07.602Z,0.10
2023-03-14T04:59:37.261Z,0.00
2023-03-14T05:02:05.876Z,0.10
2023-03-14T05:04:34.796Z,0.00
2023-03-14T05:07:03.194Z,0.20
2023-03-14T05:09:31.918Z,0.47
2023-03-14T05:12:00.455Z,0.00
2023-03-14T05:14:28.946Z,0.50
2023-03-14T05:16:58.599Z,0.00
2023-03-14T05:19:27.345Z,0.00
2023-03-14T05:21:55.718Z,0.30
2023-03-14T05:24:24.236Z,0.50
2023-03-14T05:26:52.550Z,0.10
2023-03-14T05:29:20.993Z,0.00
2023-03-14T05:31:49.409Z,0.00
2023-03-14T05:34:19.086Z,0.00
2023-03-14T05:36:47.587Z,0.00
2023-03-14T05:39:15.991Z,0.10
2023-03-14T05:41:44.427Z,0.00
2023-03-14T05:44:12.845Z,0.00
2023-03-14T05:46:41.273Z,0.30
2023-03-14T05:49:09.970Z,0.00
2023-03-14T05:51:39.872Z,0.40
2023-03-14T05:54:08.421Z,0.60
2023-03-14T05:56:36.988Z,12.13
2023-03-14T05:59:05.692Z,11.73
2023-03-14T06:01:34.223Z,13.27
2023-03-14T06:04:02.950Z,11.90
2023-03-14T06:06:31.456Z,13.37
2023-03-14T06:09:01.239Z,10.07
2023-03-14T06:11:29.642Z,10.27
2023-03-14T06:13:58.088Z,18.17
2023-03-14T06:16:26.622Z,14.90
2023-03-14T06:18:55.002Z,10.03
2023-03-14T06:21:24.071Z,13.07
2023-03-14T06:23:52.525Z,11.07
2023-03-14T06:26:22.863Z,12.77
2023-03-14T06:28:52.001Z,9.80
2023-03-14T06:31:20.700Z,11.57
2023-03-14T06:33:49.441Z,8.77
2023-03-14T06:36:17.886Z,8.93
2023-03-14T06:38:46.549Z,10.20
2023-03-14T06:41:15.006Z,10.53
2023-03-14T06:43:44.795Z,6.53
2023-03-14T06:46:13.439Z,7.00
2023-03-14T06:48:41.987Z,4.57
2023-03-14T06:51:10.470Z,8.53
2023-03-14T06:53:39.162Z,6.33
2023-03-14T06:56:08.465Z,10.47
2023-03-14T06:58:36.927Z,9.03
2023-03-14T07:01:07.214Z,7.60
2023-03-14T07:03:35.844Z,6.77
2023-03-14T07:06:04.454Z,10.97
2023-03-14T07:08:33.193Z,11.07
2023-03-14T07:11:01.980Z,9.23
2023-03-14T07:13:30.520Z,7.93
2023-03-14T07:15:58.990Z,7.63
2023-03-14T07:18:28.887Z,11.07
2023-03-14T07:20:57.305Z,6.83
2023-03-14T07:23:26.272Z,7.43
2023-03-14T07:25:55.128Z,4.30
2023-03-14T07:28:24.072Z,9.30
2023-03-14T07:30:52.672Z,11.43
2023-03-14T07:33:21.162Z,11.57
2023-03-14T07:35:51.730Z,12.60
2023-03-14T07:38:22.718Z,13.63
2023-03-14T07:40:51.728Z,16.00
2023-03-14T07:43:20.147Z,8.00
2023-03-14T07:45:51.301Z,17.07
2023-03-14T07:48:20.364Z,14.47
2023-03-14T07:50:52.351Z,15.37
2023-03-14T07:53:20.863Z,12.40
2023-03-14T07:55:49.708Z,17.70
2023-03-14T07:58:18.387Z,15.57
2023-03-14T08:00:46.971Z,16.90
2023-03-14T08:03:15.386Z,18.03
2023-03-14T08:05:43.816Z,19.27
2023-03-14T08:08:13.449Z,25.90
2023-03-14T08:10:41.894Z,13.33
2023-03-14T08:13:12.032Z,14.93
2023-03-14T08:15:40.527Z,13.97
2023-03-14T08:18:08.966Z,22.47
2023-03-14T08:20:38.929Z,16.00
2023-03-14T08:23:07.274Z,15.93
2023-03-14T08:25:36.916Z,18.83
2023-03-14T08:28:06.268Z,13.73
2023-03-14T08:30:34.893Z,15.33
2023-03-14T08:33:03.467Z,13.57
2023-03-14T08:35:32.148Z,12.80
2023-03-14T08:38:00.596Z,12.43
2023-03-14T08:40:29.253Z,14.70
2023-03-14T08:42:58.931Z,14.83
2023-03-14T08:45:27.901Z,13.33
2023-03-14T08:47:56.422Z,17.47
2023-03-14T08:50:25.320Z,18.20
2023-03-14T08:52:54.092Z,8.27
2023-03-14T08:55:22.765Z,13.27
2023-03-14T08:57:51.168Z,16.87
2023-03-14T09:00:22.009Z,17.63
2023-03-14T09:02:50.506Z,18.17
2023-03-14T09:05:19.084Z,11.83
2023-03-14T09:07:48.095Z,11.23
2023-03-14T09:10:16.937Z,16.40
2023-03-14T09:12:45.287Z,11.17
2023-03-14T09:15:13.776Z,0.50
2023-03-14T09:17:44.980Z,0.20
2023-03-14T09:20:15.480Z,0.20
2023-03-14T09:22:44.197Z,0.10
2023-03-14T09:25:13.092Z,0.60
2023-03-14T09:27:41.575Z,0.40
2023-03-14T09:30:11.689Z,0.10
2023-03-14T09:32:40.232Z,0.00
2023-03-14T09:35:10.918Z,0.10
2023-03-14T09:37:39.297Z,0.10
2023-03-14T10:00:00.711Z,0.00
2023-03-14T10:02:35.546Z,0.00
2023-03-14T10:05:07.746Z,0.10
2023-03-14T10:07:36.498Z,0.00
2023-03-14T10:10:13.699Z,1.80
2023-03-14T10:12:43.033Z,0.00
2023-03-14T10:15:15.987Z,0.00
2023-03-14T10:17:45.915Z,0.10
2023-03-14T10:20:33.661Z,0.00
2023-03-14T10:23:04.257Z,0.00
2023-03-14T10:25:34.413Z,0.00
2023-03-14T10:28:03.049Z,0.20
2023-03-14T10:30:45.605Z,0.60
2023-03-14T10:33:22.619Z,0.10
2023-03-14T10:35:55.748Z,0.00
2023-03-14T10:38:26.503Z,0.00
2023-03-14T10:40:56.413Z,0.10
2023-03-14T10:43:28.665Z,0.03
2023-03-14T10:46:01.041Z,0.10
2023-03-14T10:48:34.604Z,0.00
2023-03-14T10:51:08.237Z,0.00
2023-03-14T10:53:43.064Z,0.10
2023-03-14T10:56:15.022Z,0.00
2023-03-14T10:58:45.343Z,0.10
2023-03-14T11:01:32.389Z,0.00
2023-03-14T11:04:07.604Z,0.17
2023-03-14T11:06:41.549Z,0.33
2023-03-14T11:09:17.614Z,0.17
2023-03-14T11:11:48.982Z,0.10
2023-03-14T11:14:28.045Z,0.00
2023-03-14T11:17:03.288Z,0.23
2023-03-14T11:19:45.919Z,0.00
2023-03-14T11:22:23.617Z,1.50
2023-03-14T11:25:15.221Z,0.00
2023-03-14T11:27:45.723Z,0.00
2023-03-14T11:30:21.986Z,0.10
2023-03-14T11:32:59.245Z,0.10
2023-03-14T11:35:32.648Z,0.10
2023-03-14T11:38:21.974Z,0.00
2023-03-14T11:40:52.627Z,0.10
2023-03-14T11:43:27.450Z,0.10
2023-03-14T11:45:59.590Z,0.00
2023-03-14T11:48:37.259Z,0.30
2023-03-14T11:51:11.598Z,0.20
2023-03-14T11:53:50.747Z,0.53
2023-03-14T11:56:26.868Z,0.00
2023-03-14T11:59:00.753Z,0.30
2023-03-14T12:01:36.291Z,0.30
2023-03-14T12:04:15.520Z,0.17
2023-03-14T12:06:49.326Z,0.33
2023-03-14T12:09:20.551Z,0.87
2023-03-14T12:11:53.841Z,2.40
2023-03-14T12:14:25.968Z,0.00
2023-03-14T12:16:59.218Z,0.20
2023-03-14T12:19:37.351Z,0.10
2023-03-14T12:22:25.539Z,0.10
2023-03-14T12:24:57.383Z,0.10
2023-03-14T12:27:51.324Z,0.10
2023-03-14T12:30:28.428Z,0.10
2023-03-14T12:33:32.821Z,0.00
2023-03-14T12:36:32.289Z,0.87
2023-03-14T12:39:15.549Z,0.10
2023-03-14T12:41:46.611Z,0.10
2023-03-14T12:44:48.570Z,0.10
2023-03-14T12:47:53.317Z,0.63
2023-03-14T12:50:26.587Z,0.73
2023-03-14T12:53:26.226Z,0.10
2023-03-14T12:56:00.505Z,0.20
2023-03-14T12:58:34.401Z,0.20
2023-03-14T13:01:04.283Z,0.10
2023-03-14T13:03:44.644Z,0.10
2023-03-14T13:06:13.629Z,11.37
2023-03-14T13:08:45.024Z,0.10
2023-03-14T13:11:17.168Z,0.17
2023-03-14T13:13:49.279Z,0.10
2023-03-14T13:16:20.077Z,0.00
2023-03-14T13:18:49.695Z,0.20
2023-03-14T13:21:20.765Z,0.00
2023-03-14T13:24:01.462Z,0.00
2023-03-14T13:26:37.545Z,0.10
2023-03-14T13:29:22.472Z,0.00
2023-03-14T13:31:52.682Z,0.10
2023-03-14T13:34:21.408Z,0.10
2023-03-14T13:36:53.624Z,0.00
2023-03-14T13:39:26.043Z,0.10
2023-03-14T13:41:55.132Z,0.07
2023-03-14T13:44:28.667Z,0.73
2023-03-14T13:47:00.460Z,0.07
2023-03-14T13:49:30.103Z,0.00
2023-03-14T13:51:58.643Z,0.00
2023-03-14T13:54:29.866Z,0.23
2023-03-14T13:57:03.051Z,17.57
2023-03-14T13:59:32.700Z,13.67
2023-03-14T14:02:05.254Z,15.23
2023-03-14T14:04:38.300Z,16.77
2023-03-14T14:07:12.845Z,16.07
2023-03-14T14:09:45.278Z,13.73
2023-03-14T14:12:17.734Z,16.53
2023-03-14T14:14:49.765Z,20.50
2023-03-14T14:17:23.022Z,16.17
2023-03-14T14:19:52.307Z,14.43
2023-03-14T14:22:21.808Z,18.63
2023-03-14T14:24:52.885Z,15.47
2023-03-14T14:27:27.615Z,17.00
2023-03-14T14:30:02.282Z,15.93
2023-03-14T14:32:37.863Z,17.80
2023-03-14T14:35:07.079Z,12.40
2023-03-14T14:37:37.374Z,19.30
2023-03-14T14:40:18.349Z,16.33
2023-03-14T14:42:47.313Z,19.70
2023-03-14T14:45:18.870Z,7.97
2023-03-14T14:47:55.608Z,12.90
2023-03-14T14:50:30.805Z,18.90
2023-03-14T14:53:00.159Z,17.57
2023-03-14T14:55:36.003Z,15.00
2023-03-14T14:58:22.408Z,21.73
2023-03-14T15:00:56.759Z,13.47
2023-03-14T15:03:27.763Z,11.00
2023-03-14T15:05:57.411Z,11.40
2023-03-14T15:08:27.528Z,14.63
2023-03-14T15:10:57.798Z,17.03
2023-03-14T15:13:26.323Z,16.03
2023-03-14T15:15:57.136Z,14.33
2023-03-14T15:18:28.592Z,17.33
2023-03-14T15:20:59.344Z,14.67
2023-03-14T15:23:27.784Z,11.53
2023-03-14T15:25:57.717Z,15.10
2023-03-14T15:28:28.154Z,16.00
2023-03-14T15:30:58.018Z,14.30
2023-03-14T15:33:27.346Z,13.47
2023-03-14T15:35:55.897Z,18.10
2023-03-14T15:38:24.848Z,16.73
2023-03-14T15:40:53.495Z,19.90
2023-03-14T15:43:23.350Z,15.07
2023-03-14T15:45:52.291Z,19.97
2023-03-14T15:48:22.146Z,11.70
2023-03-14T15:50:50.623Z,13.77
2023-03-14T15:53:19.365Z,17.73
2023-03-14T15:55:47.959Z,17.30
2023-03-14T15:58:21.729Z,20.63
2023-03-14T16:00:52.505Z,16.13
2023-03-14T16:03:21.294Z,14.37
2023-03-14T16:05:49.840Z,21.73
2023-03-14T16:08:18.649Z,21.77
2023-03-14T16:10:47.757Z,17.53
2023-03-14T16:13:16.414Z,15.17
2023-03-14T16:15:44.895Z,21.77
2023-03-14T16:18:21.652Z,19.70
2023-03-14T16:20:58.329Z,14.70
2023-03-14T16:23:26.900Z,22.00
2023-03-14T16:25:55.732Z,14.40
2023-03-14T16:28:24.680Z,23.30
2023-03-14T16:30:53.410Z,26.27
2023-03-14T16:33:25.255Z,16.37
2023-03-14T16:35:57.265Z,23.77
2023-03-14T16:38:26.240Z,32.10
2023-03-14T16:40:59.385Z,28.57
2023-03-14T16:43:28.317Z,22.10
2023-03-14T16:45:59.258Z,31.57
2023-03-14T16:48:29.560Z,18.87
2023-03-14T16:50:58.346Z,23.33
2023-03-14T16:53:29.169Z,21.70
2023-03-14T16:55:58.260Z,21.17
2023-03-14T16:58:26.822Z,16.73
2023-03-14T17:00:57.834Z,22.93
2023-03-14T17:03:28.647Z,19.30
2023-03-14T17:05:57.153Z,20.33
2023-03-14T17:08:25.729Z,21.83
2023-03-14T17:10:54.106Z,15.57
2023-03-14T17:13:25.751Z,20.07
2023-03-14T17:15:55.739Z,22.60
2023-03-14T17:18:24.444Z,18.43
2023-03-14T17:20:54.695Z,20.57
2023-03-14T17:23:23.759Z,17.23
2023-03-14T17:25:53.171Z,24.03
2023-03-14T17:28:23.380Z,19.17
2023-03-14T17:30:52.097Z,25.13
2023-03-14T17:33:20.525Z,21.30
2023-03-14T17:35:48.931Z,22.07
2023-03-14T17:38:18.593Z,26.27
2023-03-14T17:40:49.417Z,27.87
2023-03-14T17:43:19.203Z,20.50
2023-03-14T17:45:47.643Z,25.53
2023-03-14T17:48:16.051Z,28.30
2023-03-14T17:50:44.488Z,23.23
2023-03-14T17:53:12.875Z,24.10
2023-03-14T17:55:43.870Z,25.00
2023-03-14T17:58:12.997Z,24.00
2023-03-14T18:00:41.655Z,26.83
2023-03-14T18:03:10.047Z,20.27
2023-03-14T18:05:40.007Z,20.30
2023-03-14T18:08:10.977Z,23.70
2023-03-14T18:10:40.036Z,11.93
2023-03-14T18:13:10.241Z,22.87
2023-03-14T18:15:39.115Z,18.67
2023-03-14T18:18:07.554Z,17.23
2023-03-14T18:20:36.252Z,20.07
2023-03-14T18:23:05.036Z,20.23
2023-03-14T18:25:33.604Z,18.53
2023-03-14T18:28:02.491Z,25.27
2023-03-14T18:30:32.234Z,14.80
2023-03-14T18:33:01.214Z,25.63
2023-03-14T18:35:29.752Z,10.90
2023-03-14T18:37:58.482Z,10.57
2023-03-14T18:40:27.005Z,9.30
2023-03-14T18:42:56.732Z,7.27
2023-03-14T18:45:25.204Z,8.73
2023-03-14T18:47:55.191Z,8.70
2023-03-14T18:50:23.640Z,7.27
2023-03-14T18:52:52.087Z,8.07
2023-03-14T18:55:20.991Z,8.00
2023-03-14T18:57:49.337Z,4.83
2023-03-14T19:00:19.713Z,8.27
2023-03-14T19:02:48.314Z,9.53
2023-03-14T19:05:18.313Z,10.47
2023-03-14T19:07:47.206Z,7.50
2023-03-14T19:10:15.643Z,13.10
2023-03-14T19:12:44.047Z,15.37
2023-03-14T19:15:13.110Z,13.17
2023-03-14T19:17:41.651Z,16.03
2023-03-14T19:20:12.528Z,15.43
2023-03-14T19:22:42.590Z,15.37
2023-03-14T19:25:12.211Z,9.40
2023-03-14T19:27:40.899Z,9.57
2023-03-14T19:30:09.914Z,12.00
2023-03-14T19:32:38.325Z,18.07
2023-03-14T19:35:07.286Z,14.80
2023-03-14T19:37:35.919Z,17.17
2023-03-14T19:40:07.108Z,9.57
2023-03-14T19:42:35.850Z,17.27
2023-03-14T19:45:05.039Z,12.53
2023-03-14T19:47:33.480Z,13.50
2023-03-14T19:50:02.129Z,11.37
2023-03-14T19:52:30.931Z,15.00
2023-03-14T19:55:01.309Z,19.63
2023-03-14T19:57:30.959Z,24.73
2023-03-14T19:59:59.554Z,32.33
2023-03-14T20:02:29.576Z,20.43
2023-03-14T20:04:58.113Z,25.77
2023-03-14T20:07:28.014Z,20.83
2023-03-14T20:09:56.401Z,17.67
2023-03-14T20:12:24.856Z,20.83
2023-03-14T20:14:54.603Z,23.23
2023-03-14T20:17:23.078Z,19.43
2023-03-14T20:19:51.532Z,16.37
2023-03-14T20:22:20.171Z,21.53
2023-03-14T20:24:48.972Z,19.13
2023-03-14T20:27:17.401Z,17.83
2023-03-14T20:29:45.703Z,15.43
2023-03-14T20:32:16.009Z,15.33
2023-03-14T20:34:44.557Z,18.73
2023-03-14T20:37:13.579Z,18.90
2023-03-14T20:39:42.103Z,15.17
2023-03-14T20:42:10.531Z,18.10
2023-03-14T20:44:38.961Z,27.53
2023-03-14T20:47:07.567Z,24.80
2023-03-14T20:49:37.572Z,15.77
2023-03-14T20:52:06.588Z,17.93
2023-03-14T20:54:35.067Z,22.50
2023-03-14T20:57:03.444Z,15.23
2023-03-14T20:59:32.146Z,16.67
2023-03-14T21:02:00.654Z,19.00
2023-03-14T21:04:29.357Z,24.03
2023-03-14T21:06:59.334Z,20.87
2023-03-14T21:09:28.371Z,22.43
2023-03-14T21:11:56.839Z,19.30
2023-03-14T21:14:25.468Z,17.37
2023-03-14T21:16:56.226Z,21.03
2023-03-14T21:19:30.620Z,17.60
2023-03-14T21:22:00.939Z,17.70
2023-03-14T21:24:30.049Z,18.87
2023-03-14T21:26:59.287Z,14.87
2023-03-14T21:29:28.423Z,17.37
2023-03-14T21:31:56.864Z,15.20
2023-03-14T21:34:26.804Z,14.07
2023-03-14T21:36:55.781Z,16.60
2023-03-14T21:39:25.481Z,16.00
2023-03-14T21:41:53.939Z,19.80
2023-03-14T21:44:22.326Z,19.63
2023-03-14T21:46:50.810Z,19.23
2023-03-14T21:49:19.545Z,12.63
2023-03-14T21:51:48.082Z,14.90
2023-03-14T21:54:17.324Z,19.43
2023-03-14T21:56:47.027Z,15.07
2023-03-14T21:59:15.646Z,14.03
2023-03-14T22:01:44.337Z,13.73
2023-03-14T22:04:13.031Z,12.23
2023-03-14T22:06:41.716Z,12.33
2023-03-14T22:09:10.417Z,14.33
2023-03-14T22:11:39.009Z,10.33
2023-03-14T22:14:08.769Z,14.17
2023-03-14T22:16:37.237Z,12.77
2023-03-14T22:19:05.671Z,11.70
2023-03-14T22:21:34.198Z,12.97
2023-03-14T22:24:02.679Z,13.20
2023-03-14T22:26:31.130Z,10.67
2023-03-14T22:28:59.577Z,15.33
2023-03-14T22:31:29.215Z,10.37
2023-03-14T22:33:57.729Z,15.10
2023-03-14T22:36:26.171Z,12.23
2023-03-14T22:38:54.621Z,12.50
2023-03-14T22:41:23.524Z,13.53
2023-03-14T22:43:51.980Z,11.70
2023-03-14T22:46:20.534Z,12.00
2023-03-14T22:48:50.659Z,8.37
2023-03-14T22:51:19.848Z,12.30
2023-03-14T22:53:49.691Z,11.30
2023-03-14T22:56:18.137Z,7.97
2023-03-14T22:58:46.646Z,8.33
2023-03-14T23:01:15.296Z,10.87
2023-03-14T23:03:43.807Z,12.40
2023-03-14T23:06:13.530Z,14.27
2023-03-14T23:08:42.246Z,12.57
2023-03-14T23:11:13.800Z,8.80
2023-03-14T23:13:43.232Z,11.67
2023-03-14T23:16:13.765Z,7.73
2023-03-14T23:18:43.659Z,12.07
2023-03-14T23:21:16.502Z,18.40
2023-03-14T23:23:47.023Z,11.73
2023-03-14T23:26:16.909Z,15.30
2023-03-14T23:28:45.824Z,11.77
2023-03-14T23:31:14.945Z,19.83
2023-03-14T23:33:44.457Z,14.70
2023-03-14T23:36:15.346Z,15.37
2023-03-14T23:38:45.735Z,13.93
2023-03-14T23:41:15.268Z,16.07
2023-03-14T23:43:45.057Z,14.50
2023-03-14T23:46:13.815Z,18.10
2023-03-14T23:48:47.157Z,11.10
2023-03-14T23:51:17.877Z,18.57
2023-03-14T23:53:46.586Z,14.97
2023-03-14T23:56:16.083Z,24.37
2023-03-14T23:58:44.757Z,19.17
